LFRSLFRH

Guest
Details From LFRS - Nantes_Atlantique
To LFRH - Lorient Lann-Bihoue
Flight Number -
Tags generated
Created
Modified
Stats Distance 83 nm / 153 km
Max Altitude 5,300 ft / 1,615 m
Waypoints 3
Social Downloads 4
Likes 0
Share VATSIM

Download

Looking for another format? Having issues loading an existing format? Contact us
Advertisement - Login to hide

Notes

Basic altitude profile: - Ascent Rate: 2500ft/min - Ascent Speed: 250kts - Cruise Altitude: 35000ft - Cruise Speed: 420kts - Descent Rate: 1500ft/min - Descent Speed: 250kts Options: - Use NATs: yes - Use PACOTS: yes - Use low airways: yes - Use high airways: yes

Route

LFRS BAGAD LFRH

ID Type Via Altitude Latitude Longitude Leg Dist Tot Dist Heading (true) Name
O LFRS APT - 0 ft / 0 m 47.15604˚ -1.61119˚ - 0 nm - Nantes_Atlantique
BAGAD FIX - 5,300 ft / 1,615 m 47.58333˚ -2.88111˚ 57 nm 57 nm 297° / 296° -
O LFRH APT - 0 ft / 0 m 47.76247˚ -3.44091˚ 25 nm 82 nm 296° / 295° Lorient Lann-Bihoue

Altitude Profile

Advertisement - Login to hide

LFRS

Details ICAO LFRS (NTE)
Name Nantes_Atlantique
Region France
Timezone Europe/Paris (UTC+1.0)
Stats Elevation 89 ft / 27 m (AMSL)
Location 47.156040° -1.611186°
Runways 2
Magnetic Variation 0.510° W

METAR

LFRS 160730Z AUTO 32003KT 290V020 CAVOK 02/01 Q1019 NOSIG

Decode

TAF

TAF LFRS 160500Z 1606/1712 30005KT 9999 SCT040 TEMPO 1700/1712 4000 RA

Decode

Departure Runways

ID Width Length Bearing (true) Bearing (mag) Surface Threshold Offset Overrun Length
03 148 ft / 45 m 9,526 ft / 2,903 m 27.35° 27.86° Asphalt 0 ft / 0 m 0 ft / 0 m
13 100 ft / 30 m 1,999 ft / 609 m 125.55° 126.06° Concrete 0 ft / 0 m 0 ft / 0 m
21 148 ft / 45 m 9,526 ft / 2,903 m 207.37° 207.88° Asphalt 689 ft / 210 m 0 ft / 0 m
31 100 ft / 30 m 1,999 ft / 609 m 305.56° 306.07° Concrete 0 ft / 0 m 0 ft / 0 m

LFRH

Details ICAO LFRH (LRT)
Name Lorient Lann-Bihoue
Region France
Timezone Europe/Paris (UTC+1.0)
Stats Elevation 122 ft / 37 m (AMSL)
Location 47.762466° -3.440907°
Runways 2
Magnetic Variation 1.165° W

METAR

LFRH 160730Z AUTO 33005KT 300V360 CAVOK 03/01 Q1020 NOSIG

Decode

TAF

TAF LFRH 160500Z 1606/1706 29005KT CAVOK TEMPO 1610/1617 SCT030 PROB30 TEMPO 1622/1702 3000 BR BECMG 1702/1704 BKN025

Decode

Destination Runways

ID Width Length Bearing (true) Bearing (mag) Surface Threshold Offset Overrun Length
02 148 ft / 45 m 6,895 ft / 2,102 m 16.11° 17.27° Asphalt 0 ft / 0 m 0 ft / 0 m
07 148 ft / 45 m 7,879 ft / 2,401 m 71.70° 72.86° Concrete 0 ft / 0 m 295 ft / 90 m
20 148 ft / 45 m 6,895 ft / 2,102 m 196.12° 197.28° Asphalt 1,411 ft / 430 m 0 ft / 0 m
25 148 ft / 45 m 7,879 ft / 2,401 m 251.72° 252.88° Concrete 568 ft / 173 m 89 ft / 27 m

Approach Navaids

Runway Type Ident Frequency Range Bearing (true) Bearing (mag) Slope Elevation
25 Localiser BH 108.15 MHz 18 nm / 33 km 251.71° 252.87° - 144 ft / 44 m (AMSL)
25 Glidescope BH 108.15 MHz 10 nm / 19 km 251.71° 252.87° 3.00° 196 ft / 60 m (AMSL)